createdAt,value
2017-06-04T00:00:50.616Z,75.15
2017-06-04T00:02:52.964Z,74.86
2017-06-04T00:04:54.434Z,75.34
2017-06-04T00:06:55.900Z,75.48
2017-06-04T00:08:57.837Z,75.44
2017-06-04T00:10:59.325Z,75.63
2017-06-04T00:13:00.785Z,75.82
2017-06-04T00:15:02.245Z,75.73
2017-06-04T00:17:04.219Z,74.67
2017-06-04T00:19:06.151Z,75.82
2017-06-04T00:21:07.630Z,75.73
2017-06-04T00:23:09.857Z,76.11
2017-06-04T00:25:11.250Z,75.73
2017-06-04T00:27:13.166Z,76.31
2017-06-04T00:29:15.084Z,76.11
2017-06-04T00:31:16.575Z,76.40
2017-06-04T00:33:18.066Z,76.40
2017-06-04T00:35:19.923Z,76.11
2017-06-04T00:37:21.422Z,76.11
2017-06-04T00:39:22.910Z,75.82
2017-06-04T00:41:24.971Z,76.31
2017-06-04T00:43:26.475Z,75.82
2017-06-04T00:45:27.934Z,76.69
2017-06-04T00:47:29.382Z,75.79
2017-06-04T00:49:30.829Z,76.84
2017-06-04T00:51:32.302Z,76.56
2017-06-04T00:53:34.416Z,76.84
2017-06-04T00:55:35.898Z,76.65
2017-06-04T00:57:37.883Z,76.46
2017-06-04T00:59:39.911Z,75.88
2017-06-04T01:01:41.562Z,76.36
2017-06-04T01:03:43.674Z,75.79
2017-06-04T01:05:46.020Z,75.79
2017-06-04T01:07:47.449Z,75.21
2017-06-04T01:09:48.897Z,74.54
2017-06-04T01:11:51.256Z,74.25
2017-06-04T01:13:53.401Z,74.73
2017-06-04T01:15:54.873Z,73.86
2017-06-04T01:17:56.872Z,73.77
2017-06-04T01:19:58.361Z,74.34
2017-06-04T01:21:59.831Z,74.44
2017-06-04T01:24:01.289Z,73.19
2017-06-04T01:26:02.754Z,74.54
2017-06-04T01:28:04.226Z,74.34
2017-06-04T01:30:05.660Z,74.44
2017-06-04T01:32:07.385Z,74.21
2017-06-04T01:34:08.801Z,73.96
2017-06-04T01:36:10.659Z,72.80
2017-06-04T01:38:12.466Z,74.11
2017-06-04T01:40:13.965Z,74.40
2017-06-04T01:42:15.400Z,74.30
2017-06-04T01:44:16.831Z,73.92
2017-06-04T01:46:18.258Z,74.02
2017-06-04T01:48:19.925Z,74.11
2017-06-04T01:50:21.762Z,74.11
2017-06-04T01:52:23.247Z,73.15
2017-06-04T01:54:24.701Z,74.30
2017-06-04T01:56:26.611Z,73.92
2017-06-04T01:58:28.551Z,74.40
2017-06-04T02:00:30.605Z,74.30
2017-06-04T02:02:32.101Z,74.30
2017-06-04T02:04:34.074Z,74.79
2017-06-04T02:06:35.525Z,74.88
2017-06-04T02:08:37.476Z,75.52
2017-06-04T02:10:38.931Z,75.32
2017-06-04T02:12:40.378Z,74.21
2017-06-04T02:14:41.855Z,74.94
2017-06-04T02:16:43.341Z,74.85
2017-06-04T02:18:45.256Z,75.52
2017-06-04T02:20:46.722Z,74.94
2017-06-04T02:22:48.174Z,75.37
2017-06-04T02:24:49.649Z,75.13
2017-06-04T02:26:51.150Z,75.13
2017-06-04T02:28:53.103Z,75.13
2017-06-04T02:30:55.295Z,75.56
2017-06-04T02:32:56.726Z,74.65
2017-06-04T02:34:58.703Z,75.04
2017-06-04T02:37:00.560Z,74.55
2017-06-04T02:39:02.667Z,74.55
2017-06-04T02:41:04.082Z,75.42
2017-06-04T02:43:05.511Z,75.62
2017-06-04T02:45:06.935Z,75.42
2017-06-04T02:47:08.801Z,75.52
2017-06-04T02:49:10.244Z,76.39
2017-06-04T02:51:11.674Z,76.25
2017-06-04T02:53:13.690Z,76.64
2017-06-04T02:55:15.070Z,77.98
2017-06-04T02:57:16.498Z,77.88
2017-06-04T02:59:17.927Z,77.31
2017-06-04T03:01:19.626Z,77.21
2017-06-04T03:03:21.705Z,76.44
2017-06-04T03:05:23.631Z,75.67
2017-06-04T03:07:25.016Z,76.19
2017-06-04T03:09:26.901Z,76.15
2017-06-04T03:11:28.420Z,76.00
2017-06-04T03:13:29.931Z,75.81
2017-06-04T03:15:32.043Z,76.00
2017-06-04T03:17:33.648Z,76.09
2017-06-04T03:19:35.131Z,76.00
2017-06-04T03:21:37.145Z,76.00
2017-06-04T03:23:38.616Z,75.81
2017-06-04T03:25:40.651Z,76.09
2017-06-04T03:27:42.599Z,76.00
2017-06-04T03:29:44.114Z,75.62
2017-06-04T03:31:45.584Z,75.52
2017-06-04T03:33:47.693Z,75.13
2017-06-04T03:35:49.792Z,76.00
2017-06-04T03:37:51.811Z,76.19
2017-06-04T03:39:53.290Z,76.39
2017-06-04T03:41:55.255Z,76.00
2017-06-04T03:43:57.403Z,75.81
2017-06-04T03:45:58.924Z,76.29
2017-06-04T03:48:00.400Z,76.00
2017-06-04T03:50:02.515Z,75.90
2017-06-04T03:52:03.950Z,75.62
2017-06-04T03:54:05.387Z,76.00
2017-06-04T03:56:06.826Z,75.81
2017-06-04T03:58:08.767Z,76.29
2017-06-04T04:00:10.915Z,76.29
2017-06-04T04:02:12.420Z,76.00
2017-06-04T04:04:14.304Z,75.81
2017-06-04T04:06:15.793Z,76.19
2017-06-04T04:08:17.243Z,76.34
2017-06-04T04:10:19.187Z,76.25
2017-06-04T04:12:20.617Z,77.15
2017-06-04T04:14:22.217Z,76.34
2017-06-04T04:16:23.790Z,76.64
2017-06-04T04:18:25.832Z,75.90
2017-06-04T04:20:27.958Z,76.29
2017-06-04T04:22:29.830Z,76.48
2017-06-04T04:24:31.846Z,77.44
2017-06-04T04:26:33.244Z,76.96
2017-06-04T04:28:34.675Z,75.90
2017-06-04T04:30:36.107Z,75.62
2017-06-04T04:32:37.539Z,77.21
2017-06-04T04:34:39.632Z,77.88
2017-06-04T04:36:41.503Z,77.69
2017-06-04T04:38:43.067Z,78.36
2017-06-04T04:40:44.567Z,78.17
2017-06-04T04:42:46.002Z,79.32
2017-06-04T04:44:47.762Z,78.55
2017-06-04T04:46:49.167Z,78.75
2017-06-04T04:48:50.596Z,78.36
2017-06-04T04:50:52.429Z,78.84
2017-06-04T04:52:53.870Z,79.71
2017-06-04T04:54:55.949Z,79.52
2017-06-04T04:56:57.395Z,79.90
2017-06-04T04:58:58.868Z,80.05
2017-06-04T05:01:00.903Z,80.76
2017-06-04T05:03:02.466Z,80.86
2017-06-04T05:05:04.513Z,80.47
2017-06-04T05:07:05.970Z,80.38
2017-06-04T05:09:07.848Z,78.94
2017-06-04T05:11:09.335Z,79.61
2017-06-04T05:13:11.492Z,79.90
2017-06-04T05:15:13.685Z,79.71
2017-06-04T05:17:15.703Z,80.09
2017-06-04T05:19:17.164Z,79.99
2017-06-04T05:21:19.378Z,79.80
2017-06-04T05:23:21.409Z,79.90
2017-06-04T05:25:22.851Z,79.22
2017-06-04T05:27:24.335Z,81.05
2017-06-04T05:29:25.792Z,80.28
2017-06-04T05:31:27.281Z,80.28
2017-06-04T05:33:29.317Z,79.61
2017-06-04T05:35:30.768Z,79.61
2017-06-04T05:37:32.201Z,78.75
2017-06-04T05:39:33.638Z,79.22
2017-06-04T05:41:35.746Z,78.65
2017-06-04T05:43:37.659Z,77.88
2017-06-04T05:45:39.757Z,78.55
2017-06-04T05:47:41.271Z,79.03
2017-06-04T05:49:42.703Z,79.03
2017-06-04T05:51:44.133Z,78.36
2017-06-04T05:53:45.592Z,79.32
2017-06-04T05:55:47.643Z,79.71
2017-06-04T05:57:49.826Z,78.55
2017-06-04T05:59:51.822Z,78.75
2017-06-04T06:01:53.335Z,78.45
2017-06-04T06:03:54.767Z,79.03
2017-06-04T06:05:56.199Z,77.01
2017-06-04T06:07:58.262Z,76.54
2017-06-04T06:09:59.772Z,77.21
2017-06-04T06:12:01.822Z,77.69
2017-06-04T06:14:03.300Z,76.39
2017-06-04T06:16:04.758Z,77.25
2017-06-04T06:18:06.788Z,75.94
2017-06-04T06:20:08.286Z,73.41
2017-06-04T06:22:10.514Z,75.07
2017-06-04T06:24:12.043Z,74.40
2017-06-04T06:26:13.528Z,74.50
2017-06-04T06:28:16.119Z,73.44
2017-06-04T06:30:18.115Z,72.29
2017-06-04T06:32:20.093Z,72.96
2017-06-04T06:34:22.430Z,73.25
2017-06-04T06:36:23.934Z,71.94
2017-06-04T06:38:25.425Z,73.77
2017-06-04T06:40:26.905Z,71.36
2017-06-04T06:42:29.164Z,71.55
2017-06-04T06:44:30.612Z,70.88
2017-06-04T06:46:32.068Z,70.65
2017-06-04T06:48:33.552Z,70.17
2017-06-04T06:50:35.050Z,72.29
2017-06-04T06:52:36.523Z,71.94
2017-06-04T06:54:37.993Z,71.65
2017-06-04T06:56:40.350Z,71.97
2017-06-04T06:58:42.642Z,69.95
2017-06-04T07:00:44.175Z,69.44
2017-06-04T07:02:45.638Z,71.59
2017-06-04T07:04:47.094Z,69.31
2017-06-04T07:06:49.417Z,67.71
2017-06-04T07:08:51.432Z,66.88
2017-06-04T07:10:53.320Z,64.89
2017-06-04T07:12:54.797Z,62.28
2017-06-04T07:14:56.624Z,61.25
2017-06-04T07:16:58.107Z,59.93
2017-06-04T07:19:00.021Z,61.47
2017-06-04T07:21:01.525Z,60.03
2017-06-04T07:23:02.989Z,59.16
2017-06-04T07:25:04.470Z,57.90
2017-06-04T07:27:05.957Z,58.39
2017-06-04T07:29:08.423Z,56.81
2017-06-04T07:31:10.654Z,61.22
2017-06-04T07:33:12.179Z,63.50
2017-06-04T07:35:13.683Z,64.08
2017-06-04T07:37:15.148Z,66.27
2017-06-04T07:39:16.971Z,65.94
2017-06-04T07:41:18.455Z,65.37
2017-06-04T07:43:19.927Z,67.97
2017-06-04T07:45:21.833Z,66.24
2017-06-04T07:47:23.378Z,64.98
2017-06-04T07:49:24.866Z,64.79
2017-06-04T07:51:26.389Z,66.81
2017-06-04T07:53:28.702Z,64.34
2017-06-04T07:55:30.645Z,66.46
2017-06-04T07:57:33.107Z,65.01
2017-06-04T07:59:34.523Z,66.17
2017-06-04T08:01:36.964Z,63.89
2017-06-04T08:03:38.982Z,62.54
2017-06-04T08:05:41.330Z,60.97
2017-06-04T08:07:43.252Z,61.93
2017-06-04T08:09:45.822Z,62.22
2017-06-04T08:11:48.167Z,61.93
2017-06-04T08:13:49.670Z,62.80
2017-06-04T08:15:52.063Z,61.77
2017-06-04T08:17:53.529Z,60.68
2017-06-04T08:19:55.004Z,59.36
2017-06-04T08:21:56.495Z,60.42
2017-06-04T08:23:58.440Z,59.36
2017-06-04T08:25:59.900Z,58.49
2017-06-04T08:28:02.387Z,59.45
2017-06-04T08:30:03.960Z,60.13
2017-06-04T08:32:05.443Z,56.85
2017-06-04T08:34:07.860Z,58.65
2017-06-04T08:36:09.372Z,61.58
2017-06-04T08:38:10.803Z,59.94
2017-06-04T08:40:12.354Z,58.72
2017-06-04T08:42:13.812Z,59.61
2017-06-04T08:44:15.283Z,58.26
2017-06-04T08:46:16.785Z,57.59
2017-06-04T08:48:18.637Z,58.45
2017-06-04T08:50:21.026Z,54.88
2017-06-04T08:52:22.498Z,57.39
2017-06-04T08:54:24.596Z,58.07
2017-06-04T08:56:26.110Z,54.79
2017-06-04T08:58:28.429Z,55.46
2017-06-04T09:00:30.632Z,54.21
2017-06-04T09:02:32.195Z,54.82
2017-06-04T09:04:34.539Z,54.91
2017-06-04T09:06:36.003Z,52.23
2017-06-04T09:08:38.171Z,53.59
2017-06-04T09:10:39.670Z,54.84
2017-06-04T09:12:41.571Z,52.45
2017-06-04T09:14:43.121Z,52.00
2017-06-04T09:16:44.601Z,51.71
2017-06-04T09:18:46.115Z,48.90
2017-06-04T09:20:48.279Z,48.59
2017-06-04T09:22:49.725Z,49.95
2017-06-04T09:24:51.194Z,53.03
2017-06-04T09:26:52.704Z,50.35
2017-06-04T09:28:54.487Z,46.68
2017-06-04T09:30:55.961Z,47.74
2017-06-04T09:32:57.465Z,48.52
2017-06-04T09:34:59.097Z,43.76
2017-06-04T09:37:00.583Z,46.64
2017-06-04T09:39:02.042Z,48.66
2017-06-04T09:41:04.182Z,46.34
2017-06-04T09:43:06.355Z,46.44
2017-06-04T09:45:08.467Z,47.41
2017-06-04T09:47:10.768Z,46.08
2017-06-04T09:49:13.042Z,46.47
2017-06-04T09:51:15.800Z,43.37
2017-06-04T09:53:18.333Z,45.18
2017-06-04T09:55:20.268Z,46.25
2017-06-04T09:57:22.825Z,45.76
2017-06-04T09:59:25.160Z,47.80
2017-06-04T10:01:26.654Z,45.38
2017-06-04T10:03:28.106Z,45.94
2017-06-04T10:05:29.605Z,46.30
2017-06-04T10:07:31.066Z,47.94
2017-06-04T10:09:33.106Z,46.88
2017-06-04T10:11:34.569Z,48.59
2017-06-04T10:13:36.679Z,50.81
2017-06-04T10:15:38.207Z,50.71
2017-06-04T10:17:40.167Z,50.81
2017-06-04T10:19:42.189Z,51.68
2017-06-04T10:21:43.639Z,52.55
2017-06-04T10:23:45.166Z,51.87
2017-06-04T10:25:47.403Z,52.25
2017-06-04T10:27:48.897Z,53.83
2017-06-04T10:29:50.425Z,51.70
2017-06-04T10:31:52.240Z,49.80
2017-06-04T10:33:53.747Z,49.12
2017-06-04T10:35:55.743Z,50.76
2017-06-04T10:37:57.760Z,49.32
2017-06-04T10:39:59.708Z,48.13
2017-06-04T10:42:01.217Z,50.28
2017-06-04T10:44:03.353Z,50.96
2017-06-04T10:46:05.539Z,51.37
2017-06-04T10:48:07.031Z,50.04
2017-06-04T10:50:09.077Z,46.37
2017-06-04T10:52:11.272Z,47.91
2017-06-04T10:54:12.788Z,48.69
2017-06-04T10:56:14.892Z,47.72
2017-06-04T10:58:16.377Z,45.38
2017-06-04T11:00:17.847Z,48.64
2017-06-04T11:02:19.336Z,50.98
2017-06-04T11:04:21.403Z,50.96
2017-06-04T11:06:23.281Z,49.60
2017-06-04T11:08:25.833Z,49.70
2017-06-04T11:10:27.268Z,49.05
2017-06-04T11:12:28.741Z,49.05
2017-06-04T11:14:30.225Z,47.63
2017-06-04T11:16:32.204Z,48.90
2017-06-04T11:18:34.186Z,47.74
2017-06-04T11:20:35.652Z,46.32
2017-06-04T11:22:37.643Z,44.67
2017-06-04T11:24:39.116Z,44.36
2017-06-04T11:26:41.146Z,43.78
2017-06-04T11:28:43.572Z,44.92
2017-06-04T11:30:46.090Z,44.70
2017-06-04T11:32:48.236Z,48.64
2017-06-04T11:34:49.780Z,48.33
2017-06-04T11:36:51.230Z,48.61
2017-06-04T11:38:53.320Z,48.42
2017-06-04T11:40:55.197Z,47.53
2017-06-04T11:42:56.639Z,49.07
2017-06-04T11:44:58.509Z,48.01
2017-06-04T11:47:00.013Z,47.82
2017-06-04T11:49:01.482Z,48.71
2017-06-04T11:51:03.043Z,48.81
2017-06-04T11:53:05.530Z,48.64
2017-06-04T11:55:08.101Z,45.07
2017-06-04T11:57:09.516Z,49.12
2017-06-04T11:59:11.399Z,48.35
2017-06-04T12:01:13.882Z,47.89
2017-06-04T12:03:15.892Z,44.70
2017-06-04T12:05:17.886Z,46.66
2017-06-04T12:07:19.936Z,46.68
2017-06-04T12:09:21.525Z,46.32
2017-06-04T12:11:23.012Z,40.20
2017-06-04T12:13:24.470Z,42.72
2017-06-04T12:15:26.521Z,44.94
2017-06-04T12:17:28.453Z,47.65
2017-06-04T12:19:30.041Z,46.68
2017-06-04T12:21:31.766Z,44.73
2017-06-04T12:23:33.721Z,44.07
2017-06-04T12:25:35.225Z,46.58
2017-06-04T12:27:37.373Z,43.37
2017-06-04T12:29:38.855Z,44.53
2017-06-04T12:31:41.401Z,43.84
2017-06-04T12:33:42.893Z,43.26
2017-06-04T12:35:44.862Z,44.70
2017-06-04T12:37:46.359Z,45.26
2017-06-04T12:39:48.346Z,44.59
2017-06-04T12:41:49.834Z,45.55
2017-06-04T12:43:51.309Z,45.92
2017-06-04T12:45:53.180Z,44.85
2017-06-04T12:47:54.686Z,46.01
2017-06-04T12:49:56.250Z,44.56
2017-06-04T12:51:57.789Z,46.97
2017-06-04T12:54:00.607Z,45.72
2017-06-04T12:56:02.079Z,48.33
2017-06-04T12:58:03.995Z,46.56
2017-06-04T13:00:05.510Z,47.82
2017-06-04T13:02:07.000Z,47.70
2017-06-04T13:04:08.484Z,50.88
2017-06-04T13:06:09.945Z,53.58
2017-06-04T13:08:11.386Z,54.35
2017-06-04T13:10:13.683Z,55.31
2017-06-04T13:12:15.131Z,54.83
2017-06-04T13:14:17.413Z,53.89
2017-06-04T13:16:19.187Z,53.41
2017-06-04T13:18:21.629Z,53.61
2017-06-04T13:20:23.177Z,53.00
2017-06-04T13:22:24.635Z,51.94
2017-06-04T13:24:26.780Z,51.75
2017-06-04T13:26:28.641Z,51.07
2017-06-04T13:28:30.113Z,51.94
2017-06-04T13:30:32.120Z,50.40
2017-06-04T13:32:34.430Z,50.66
2017-06-04T13:34:35.977Z,50.57
2017-06-04T13:36:37.467Z,51.24
2017-06-04T13:38:40.050Z,50.37
2017-06-04T13:40:42.457Z,51.24
2017-06-04T13:42:43.933Z,52.49
2017-06-04T13:44:45.383Z,51.34
2017-06-04T13:46:46.847Z,54.13
2017-06-04T13:48:48.821Z,54.93
2017-06-04T13:50:50.946Z,52.42
2017-06-04T13:52:53.295Z,50.30
2017-06-04T13:54:54.791Z,52.04
2017-06-04T13:56:56.823Z,50.78
2017-06-04T13:58:59.359Z,52.35
2017-06-04T14:01:02.160Z,51.58
2017-06-04T14:03:04.474Z,50.64
2017-06-04T14:05:06.756Z,49.87
2017-06-04T14:07:09.110Z,52.37
2017-06-04T14:09:11.321Z,49.87
2017-06-04T14:11:13.872Z,49.58
2017-06-04T14:13:16.187Z,48.90
2017-06-04T14:15:18.575Z,49.00
2017-06-04T14:17:20.055Z,49.19
2017-06-04T14:19:22.591Z,49.39
2017-06-04T14:21:24.151Z,48.71
2017-06-04T14:23:26.086Z,49.39
2017-06-04T14:25:27.550Z,48.33
2017-06-04T14:27:29.038Z,49.48
2017-06-04T14:29:31.035Z,48.61
2017-06-04T14:31:33.394Z,48.33
2017-06-04T14:33:35.465Z,49.60
2017-06-04T14:35:36.940Z,47.58
2017-06-04T14:37:39.253Z,50.11
2017-06-04T14:39:40.769Z,48.59
2017-06-04T14:41:42.892Z,46.56
2017-06-04T14:43:45.573Z,46.49
2017-06-04T14:45:47.130Z,44.82
2017-06-04T14:47:48.603Z,45.59
2017-06-04T14:49:50.085Z,46.15
2017-06-04T14:51:51.537Z,46.92
2017-06-04T14:53:53.008Z,46.81
2017-06-04T14:55:55.467Z,49.12
2017-06-04T14:57:56.964Z,47.75
2017-06-04T14:59:58.475Z,47.36
2017-06-04T15:02:00.003Z,48.52
2017-06-04T15:04:02.259Z,48.81
2017-06-04T15:06:03.742Z,46.40
2017-06-04T15:08:05.764Z,47.94
2017-06-04T15:10:07.829Z,48.71
2017-06-04T15:12:09.322Z,48.33
2017-06-04T15:14:11.478Z,48.83
2017-06-04T15:16:12.962Z,48.64
2017-06-04T15:18:14.919Z,47.48
2017-06-04T15:20:17.164Z,45.34
2017-06-04T15:22:18.741Z,47.27
2017-06-04T15:24:20.236Z,47.75
2017-06-04T15:26:22.490Z,47.65
2017-06-04T15:28:23.967Z,46.78
2017-06-04T15:30:25.759Z,48.52
2017-06-04T15:32:27.878Z,47.34
2017-06-04T15:34:29.960Z,47.63
2017-06-04T15:36:31.438Z,47.63
2017-06-04T15:38:33.512Z,48.30
2017-06-04T15:40:35.106Z,50.52
2017-06-04T15:42:37.390Z,50.04
2017-06-04T15:44:38.926Z,48.97
2017-06-04T15:46:40.958Z,49.07
2017-06-04T15:48:43.345Z,47.53
2017-06-04T15:50:45.632Z,46.73
2017-06-04T15:52:47.151Z,47.70
2017-06-04T15:54:49.257Z,47.53
2017-06-04T15:56:51.706Z,47.53
2017-06-04T15:58:53.658Z,46.73
2017-06-04T16:00:56.165Z,46.55
2017-06-04T16:02:58.359Z,45.48
2017-06-04T16:05:00.749Z,44.81
2017-06-04T16:07:02.262Z,46.15
2017-06-04T16:09:04.049Z,45.58
2017-06-04T16:11:05.531Z,47.22
2017-06-04T16:13:06.995Z,47.70
2017-06-04T16:15:09.273Z,44.81
2017-06-04T16:17:10.718Z,45.58
2017-06-04T16:19:12.824Z,45.10
2017-06-04T16:21:14.841Z,45.00
2017-06-04T16:23:16.972Z,46.06
2017-06-04T16:25:19.206Z,46.95
2017-06-04T16:27:20.701Z,45.79
2017-06-04T16:29:22.193Z,44.66
2017-06-04T16:31:24.198Z,43.50
2017-06-04T16:33:25.686Z,44.08
2017-06-04T16:35:27.152Z,44.56
2017-06-04T16:37:29.287Z,43.79
2017-06-04T16:39:31.667Z,45.34
2017-06-04T16:41:33.727Z,43.21
2017-06-04T16:43:35.236Z,43.79
2017-06-04T16:45:37.423Z,43.96
2017-06-04T16:47:39.617Z,46.95
2017-06-04T16:49:41.700Z,46.28
2017-06-04T16:51:44.041Z,45.82
2017-06-04T16:53:46.283Z,46.28
2017-06-04T16:55:48.326Z,45.31
2017-06-04T16:57:49.994Z,44.54
2017-06-04T16:59:52.023Z,44.45
2017-06-04T17:01:54.389Z,44.64
2017-06-04T17:03:56.565Z,44.73
2017-06-04T17:05:58.890Z,45.31
2017-06-04T17:08:00.967Z,46.08
2017-06-04T17:10:03.253Z,45.60
2017-06-04T17:12:05.576Z,46.08
2017-06-04T17:14:07.094Z,47.82
2017-06-04T17:16:09.901Z,45.99
2017-06-04T17:18:11.251Z,45.10
2017-06-04T17:20:12.774Z,44.64
2017-06-04T17:22:14.259Z,43.48
2017-06-04T17:24:16.569Z,45.51
2017-06-04T17:26:18.290Z,46.56
2017-06-04T17:28:19.840Z,45.41
2017-06-04T17:30:21.978Z,43.10
2017-06-04T17:32:24.110Z,43.00
2017-06-04T17:34:25.623Z,42.80
2017-06-04T17:36:27.316Z,43.48
2017-06-04T17:38:28.840Z,42.42
2017-06-04T17:40:31.304Z,42.61
2017-06-04T17:42:33.064Z,43.46
2017-06-04T17:44:35.225Z,43.55
2017-06-04T17:46:36.757Z,43.46
2017-06-04T17:48:38.989Z,43.67
2017-06-04T17:50:41.224Z,45.10
2017-06-04T17:52:42.753Z,44.04
2017-06-04T17:54:44.218Z,43.46
2017-06-04T17:56:46.497Z,42.02
2017-06-04T17:58:48.819Z,42.21
2017-06-04T18:00:51.136Z,42.21
2017-06-04T18:02:52.644Z,42.59
2017-06-04T18:04:54.118Z,42.11
2017-06-04T18:06:55.583Z,42.88
2017-06-04T18:08:57.736Z,42.97
2017-06-04T18:11:00.056Z,43.55
2017-06-04T18:13:02.263Z,42.30
2017-06-04T18:15:03.748Z,42.97
2017-06-04T18:17:05.394Z,43.07
2017-06-04T18:19:07.337Z,43.46
2017-06-04T18:21:08.847Z,44.81
2017-06-04T18:23:11.097Z,43.55
2017-06-04T18:25:13.200Z,43.94
2017-06-04T18:27:15.302Z,42.40
2017-06-04T18:29:17.411Z,44.62
2017-06-04T18:31:18.915Z,44.32
2017-06-04T18:33:20.476Z,44.04
2017-06-04T18:35:21.962Z,43.75
2017-06-04T18:37:24.019Z,43.37
2017-06-04T18:39:26.159Z,43.73
2017-06-04T18:41:27.745Z,44.42
2017-06-04T18:43:29.229Z,43.44
2017-06-04T18:45:31.485Z,42.96
2017-06-04T18:47:32.999Z,43.54
2017-06-04T18:49:35.009Z,44.21
2017-06-04T18:51:36.466Z,43.73
2017-06-04T18:53:37.934Z,44.11
2017-06-04T18:55:39.969Z,44.79
2017-06-04T18:57:42.172Z,43.63
2017-06-04T18:59:43.708Z,43.80
2017-06-04T19:01:45.171Z,43.71
2017-06-04T19:03:47.449Z,44.38
2017-06-04T19:05:49.724Z,44.57
2017-06-04T19:07:51.374Z,44.86
2017-06-04T19:09:52.896Z,44.28
2017-06-04T19:11:55.058Z,44.48
2017-06-04T19:13:56.563Z,44.67
2017-06-04T19:15:58.039Z,44.67
2017-06-04T19:18:00.291Z,44.67
2017-06-04T19:20:02.403Z,44.67
2017-06-04T19:22:03.919Z,44.17
2017-06-04T19:24:06.109Z,45.03
2017-06-04T19:26:08.438Z,45.61
2017-06-04T19:28:09.852Z,44.65
2017-06-04T19:30:11.922Z,44.74
2017-06-04T19:32:14.076Z,45.51
2017-06-04T19:34:16.355Z,45.22
2017-06-04T19:36:18.503Z,44.65
2017-06-04T19:38:19.975Z,45.90
2017-06-04T19:40:21.431Z,44.74
2017-06-04T19:42:23.765Z,45.01
2017-06-04T19:44:25.832Z,46.16
2017-06-04T19:46:27.319Z,46.26
2017-06-04T19:48:29.395Z,45.87
2017-06-04T19:50:31.040Z,45.49
2017-06-04T19:52:32.532Z,45.68
2017-06-04T19:54:34.045Z,46.55
2017-06-04T19:56:36.282Z,46.45
2017-06-04T19:58:38.244Z,46.74
2017-06-04T20:00:40.376Z,46.26
2017-06-04T20:02:42.383Z,45.68
2017-06-04T20:04:43.830Z,45.76
2017-06-04T20:06:45.953Z,45.47
2017-06-04T20:08:48.024Z,46.93
2017-06-04T20:10:50.288Z,45.95
2017-06-04T20:12:51.784Z,47.77
2017-06-04T20:14:53.248Z,46.72
2017-06-04T20:16:55.664Z,46.23
2017-06-04T20:18:57.759Z,46.53
2017-06-04T20:21:00.084Z,47.20
2017-06-04T20:23:01.598Z,46.33
2017-06-04T20:25:03.852Z,46.89
2017-06-04T20:27:05.917Z,47.85
2017-06-04T20:29:07.955Z,47.66
2017-06-04T20:31:10.000Z,47.08
2017-06-04T20:33:12.085Z,48.04
2017-06-04T20:35:14.583Z,47.75
2017-06-04T20:37:16.613Z,48.81
2017-06-04T20:39:18.123Z,49.77
2017-06-04T20:41:19.603Z,49.48
2017-06-04T20:43:21.045Z,48.40
2017-06-04T20:45:22.520Z,48.79
2017-06-04T20:47:24.477Z,49.17
2017-06-04T20:49:26.583Z,49.26
2017-06-04T20:51:28.887Z,50.32
2017-06-04T20:53:30.430Z,49.17
2017-06-04T20:55:32.544Z,48.59
2017-06-04T20:57:34.471Z,49.46
2017-06-04T20:59:35.786Z,49.55
2017-06-04T21:01:37.252Z,51.28
2017-06-04T21:03:39.541Z,50.78
2017-06-04T21:05:41.040Z,51.25
2017-06-04T21:07:43.188Z,51.16
2017-06-04T21:09:44.704Z,52.02
2017-06-04T21:11:46.129Z,52.12
2017-06-04T21:13:47.557Z,49.72
2017-06-04T21:15:49.931Z,50.20
2017-06-04T21:17:52.114Z,50.96
2017-06-04T21:19:53.586Z,52.02
2017-06-04T21:21:56.015Z,51.54
2017-06-04T21:23:58.390Z,50.75
2017-06-04T21:25:59.876Z,52.28
2017-06-04T21:28:02.050Z,52.19
2017-06-04T21:30:03.441Z,53.34
2017-06-04T21:32:05.866Z,53.15
2017-06-04T21:34:08.263Z,54.11
2017-06-04T21:36:09.729Z,53.34
2017-06-04T21:38:11.225Z,54.21
2017-06-04T21:40:12.658Z,54.11
2017-06-04T21:42:15.059Z,54.30
2017-06-04T21:44:16.990Z,53.41
2017-06-04T21:46:18.452Z,54.17
2017-06-04T21:48:19.912Z,55.52
2017-06-04T21:50:21.383Z,55.55
2017-06-04T21:52:23.659Z,55.42
2017-06-04T21:54:25.626Z,55.42
2017-06-04T21:56:27.158Z,55.42
2017-06-04T21:58:29.178Z,54.94
2017-06-04T22:00:31.279Z,55.33
2017-06-04T22:02:33.517Z,55.90
2017-06-04T22:04:35.830Z,55.71
2017-06-04T22:06:37.344Z,55.23
2017-06-04T22:08:39.677Z,55.62
2017-06-04T22:10:42.086Z,55.62
2017-06-04T22:12:43.658Z,56.48
2017-06-04T22:14:45.118Z,56.64
2017-06-04T22:16:46.587Z,56.74
2017-06-04T22:18:48.783Z,57.03
2017-06-04T22:20:50.996Z,58.27
2017-06-04T22:22:53.149Z,58.27
2017-06-04T22:24:54.586Z,58.65
2017-06-04T22:26:56.048Z,59.23
2017-06-04T22:28:58.359Z,58.17
2017-06-04T22:31:00.278Z,59.52
2017-06-04T22:33:01.728Z,59.23
2017-06-04T22:35:04.177Z,59.71
2017-06-04T22:37:05.594Z,59.80
2017-06-04T22:39:07.066Z,60.19
2017-06-04T22:41:09.312Z,59.61
2017-06-04T22:43:11.813Z,59.71
2017-06-04T22:45:13.342Z,59.13
2017-06-04T22:47:14.765Z,59.04
2017-06-04T22:49:16.769Z,59.61
2017-06-04T22:51:18.883Z,60.93
2017-06-04T22:53:20.424Z,60.44
2017-06-04T22:55:22.534Z,60.44
2017-06-04T22:57:24.038Z,60.25
2017-06-04T22:59:26.055Z,59.39
2017-06-04T23:01:28.006Z,59.68
2017-06-04T23:03:30.238Z,60.64
2017-06-04T23:05:31.677Z,61.21
2017-06-04T23:07:34.008Z,61.40
2017-06-04T23:09:35.482Z,60.83
2017-06-04T23:11:38.003Z,61.21
2017-06-04T23:13:39.533Z,60.35
2017-06-04T23:15:41.685Z,60.16
2017-06-04T23:17:43.169Z,60.93
2017-06-04T23:19:44.641Z,61.02
2017-06-04T23:21:46.524Z,59.84
2017-06-04T23:23:48.487Z,59.58
2017-06-04T23:25:50.555Z,61.08
2017-06-04T23:27:52.350Z,59.84
2017-06-04T23:29:54.694Z,60.93
2017-06-04T23:31:56.949Z,61.18
2017-06-04T23:33:59.130Z,62.04
2017-06-04T23:36:00.611Z,61.85
2017-06-04T23:38:02.811Z,62.62
2017-06-04T23:40:04.338Z,61.85
2017-06-04T23:42:06.655Z,60.99
2017-06-04T23:44:08.061Z,60.99
2017-06-04T23:46:10.153Z,60.99
2017-06-04T23:48:11.614Z,61.85
2017-06-04T23:50:13.086Z,62.14
2017-06-04T23:52:14.514Z,61.76
2017-06-04T23:54:16.488Z,61.94
2017-06-04T23:56:17.959Z,61.66
2017-06-04T23:58:19.452Z,62.14
